KNMI Weerbulletins

Hier vind u de KMNI verwachtingen en de waarnemingen

Bron: KNMI website
Laatste update op 25-08-2019 om 14:21
ZCZC
FBNL50 EHDB 251121
WEERBULLETIN VOOR DE LUCHTVAART
.
GELDIG 251200/251800 UTC
.
SITUATIE: EEN HOOG BOVEN DE BALTISCHE STATEN ZORGT BIJ ONS VOOR EEN
ZWAKKE OOSTELIJKE STROMING. DE OPBOUW IS TOT CA. 17 UTC ONSTABIEL TOT
FL070.
.
SIGNIFICANT WEER: GEEN.
.
WIND: OOSTELIJK 2-6 KN. IN DE EERSTE HELFT VAN DE PERIODE NEEMT DE
WIND ENKELE KN AF EN WORDT OP VEEL PLAATSEN ZWAK EN VERANDERLIJK.
LANGS DE KUST EN RONDOM HET IJSSELMEER WORDT DE WIND DAN AANLANDIG
T.G.V. ZEEWIND.
.
BEWOLKING: IN HET OOSTEN LOKAAL FEW CU 6000 VT, TOPPEN 7000 VT. AAN
HET EINDE VAN DE PERIODE OPLOSSEND.
.
ZICHT: MEER DAN 10 KM.
.
NULGRADEN NIVEAU: BOVEN FL100.
.
HOOGTEWINDEN EN TEMPERATUREN:
       12 UTC:       18 UTC:
0500VT 100/05-10 +27 030/05-15 +28
1500VT 100/05-10 +24 030/05-10 +26
3000VT 100/05-10 +20 040/05    +21
FL 050 150/05    +13 090/05    +14
FL 100 100/05    +06 VRB/05    +06
12 UTC: IN DE ONDERSTE 3000VT IN HET ZO VRB/05.
18 UTC: OP 0500/1500VT HOOGSTE WINDSNELHEID IN HET NO.
.
THERMIEK: MATIG. M.U.V. HET OOSTEN MEEST DROOG. ROND 17 UTC
UITDOVEND.
.
MAX. TEMPERATUUR: VAN 27 GRADEN CELSIUS AAN DE KUST TOT LOKAAL 32
GRADEN CELSIUS IN HET ZUIDEN EN OOSTEN.
.
VOORUITZICHTEN VOOR DE PERIODE VAN 251800/260000: GEEN SIGNIFICANTE
VERANDERING.
.
DAGLICHTPERIODE: 04.25 TOT 18.59 UTC.=
NNNN
Bron: KNMI website
Laatste update op 25-08-2019 om 14:21
ZCZC
FC250900 EHGR     GILZE-RIJEN/GILZE-RIJEN   NLD   14 m.
TAF EHGR 250900Z NIL=
ZCZC
FC250900 EHKD     DE KOOY/DE KOOY   NLD   1 m.
TAF EHKD 250821Z 2509/2521 07004KT CAVOK=
ZCZC
FC250900 EHLW     LEEUWARDEN/LEEUWARDEN   NLD   1 m.
TAF EHLW 250803Z 2509/2521 13003KT CAVOK
    BECMG 2512/2515 05006KT=
ZCZC
FC250900 EHVK     VOLKEL/VOLKEL   NLD   21 m.
TAF EHVK 250801Z 2509/2521 VRB02KT CAVOK
    BECMG 2518/2521 03004KT=
ZCZC
FC250900 EHWO     WOENSDRECHT/WOENSDRECHT   NLD   19 m.
TAF EHWO 250900Z NIL=
ZCZC
FT251100 EHAM     AMSTERDAM/SCHIPHOL   NLD   -3 m.
TAF EHAM 251100Z 2512/2618 10007KT CAVOK=
ZCZC
FT251100 EHBK     MAASTRICHT/MAASTRICHT-AACHEN   NLD   114 m.
TAF EHBK 251101Z 2512/2618 VRB03KT CAVOK=
ZCZC
FT251100 EHGG     GRONINGEN/EELDE   NLD   5 m.
TAF EHGG 251101Z 2512/2618 11005KT CAVOK
    PROB30 TEMPO 2601/2605 7000 MIFG=
ZCZC
FT251100 EHRD     ROTTERDAM/THE HAGUE AIRPORT   NLD   -5 m.
TAF EHRD 251100Z 2512/2618 09005KT CAVOK=
ZCZC
FT251100 EHEH     EINDHOVEN/EINDHOVEN   NLD   22 m.
TAF EHEH 251106Z 2512/2618 10005KT CAVOK
    BECMG 2516/2519 VRB03KT=
Bron: KNMI website
Laatste update op 25-08-2019 om 14:21
ZCZC
SA251155 EHKD     DE KOOY/DE KOOY   NLD   1 m.
METAR EHKD 251155Z AUTO 05006KT 020V080 9999 OVC270 24/16 Q1019
BLU 06006KT CAVOK=
ZCZC
SA251155 EHFD     F3-FB-1   NLD   50 m.
METAR EHFD 251155Z AUTO 13010KT 9999 NCD 19/18 Q1020 W///H///=
ZCZC
SA251155 EHAM     AMSTERDAM/SCHIPHOL   NLD   -3 m.
METAR EHAM 251155Z 14006KT 090V180 CAVOK 30/13 Q1019 NOSIG=
ZCZC
SA251155 EHVL     VLIELAND   NLD   10 m.
METAR EHVL 251155Z AUTO 12004KT 9999 OVC270 27/15 Q1019 BLU=
ZCZC
SA251155 EHJR     K13-A   NLD   37 m.
METAR EHJR 251155Z AUTO 10007KT //// // ///////// 21/17 Q1023 RE//
W///H3=
ZCZC
SA251155 EHLW     LEEUWARDEN/LEEUWARDEN   NLD   1 m.
METAR EHLW 251155Z AUTO 09005KT 360V160 9999 OVC310 29/16 Q1019 BLU=
ZCZC
SA251155 EHDL     ARNHEM/DEELEN   NLD   48 m.
METAR EHDL 251155Z AUTO VRB04KT 9999 OVC280 30/14 Q1019 BLU=
ZCZC
SA251155 EHGG     GRONINGEN/EELDE   NLD   5 m.
METAR EHGG 251155Z AUTO 14006KT 070V230 9999 NSC 30/12 Q1019 NOSIG=
ZCZC
SA251155 EHSC     LICHTEILAND GOEREE   NLD   22 m.
METAR EHSC 251155Z AUTO 10001KT 8000 ///////// 22/18 Q1019 W20/H2=
ZCZC
SA251155 EHSA     EURO PLATFORM   NLD   19 m.
METAR EHSA 251155Z AUTO 07003KT 6000 ///////// 21/17 Q1019 W17/H3=
ZCZC
SA251155 EHWO     WOENSDRECHT/WOENSDRECHT   NLD   19 m.
METAR EHWO 251155Z AUTO VRB06KT 9999 OVC240 30/14 Q1018 BLU=
ZCZC
SA251155 EHRD     ROTTERDAM/THE HAGUE AIRPORT   NLD   -5 m.
METAR EHRD 251155Z AUTO 13004KT 050V200 9999 NSC 29/13 Q1018 NOSIG=
ZCZC
SA251155 EHGR     GILZE-RIJEN/GILZE-RIJEN   NLD   14 m.
METAR EHGR 251155Z AUTO 12006KT 010V180 9999 NCD 30/12 Q1018 BLU=
ZCZC
SA251155 EHEH     EINDHOVEN/EINDHOVEN   NLD   22 m.
METAR EHEH 251155Z AUTO 08005KT 100V230 9999 OVC280 31/10 Q1018
BLU 12005KT CAVOK=
ZCZC
SA251155 EHVK     VOLKEL/VOLKEL   NLD   21 m.
METAR EHVK 251155Z AUTO 08004KT 050V160 9999 OVC280 30/14 Q1018 BLU=
ZCZC
SA251155 EHBK     MAASTRICHT/MAASTRICHT-AACHEN   NLD   114 m.
METAR EHBK 251155Z AUTO 05005KT 360V110 9999 NSC 29/14 Q1019 NOSIG=
ZCZC
SA251155 EHFZ     F16-A   NLD   43 m.
METAR EHFZ 251155Z AUTO 15003KT 9999 NSC 20/18 Q1020 W///H///=
ZCZC
SA251155 EHKV     K14-FA-1C   NLD   41 m.
METAR EHKV 251155Z AUTO 09006KT 9999 NCD 21/16 Q1020 W///H///=
ZCZC
SA251155 EHMG     L9-FF-1   NLD   44 m.
METAR EHMG 251155Z AUTO 08005KT 9999 NSC 24/20 Q1020 W///H///=
ZCZC
SA251155 EHMA     AWG-1   NLD   40 m.
METAR EHMA 251155Z AUTO 12007KT 040V160 //// // NCD 21/19 Q1020 RE//
W///H///=
ZCZC
SA251155 EHDV     D15-FA-1   NLD   42 m.
METAR EHDV 251155Z AUTO 17005KT 9999 NSC 20/17 Q1020 W///H///=
ZCZC
SA251155 EHAK     A12-CPP   NLD   48 m.
METAR EHAK 251155Z AUTO VRB06KT 9999 NSC 19/18 Q1020 W///H///=
ZCZC
SA251155 EHQE     HOORN-A   NLD   50 m.
METAR EHQE 251155Z AUTO 04006KT 9999 NSC 22/16 Q1019 W///H///=
ZCZC
SA251155 EHJA     J6-A   NLD   45 m.
METAR EHJA 251155Z AUTO 12005KT 050V210 9999 NSC 21/18 Q1020
W///H///=
ZCZC
SA251155 EHPG     P11-B   NLD   41 m.
METAR EHPG 251155Z AUTO 06007KT 9999 NSC 23/09 Q1019 W///H///=
ZCZC
SA251155 EHHW     BUITENGAATS/BG-OHVS2      42 m.
METAR EHHW 251155Z AUTO 11009KT 080V150 //// // NSC 21/17 Q1020 RE//
W///H///=
ZCZC
SA251155 EHFS     VLISSINGEN AWS   NLD   8 m.
METAR EHFS 251155Z AUTO VRB01KT 9000 NCD 28/18 Q1018 W///H///=